Finnhawk — OJNL — position and weather

sailwx.info

Track history (hours):
 
Tides and Currents Weather Stations Pressure Air Temp Water Temp Dewpoint Dewpoint Depression Visibility Wind Speed Wind Dir Waves Ship Positions

Finnhawk

Last reported at 2016-May-28 15:31 UTC. Time now 2016-May-29 00:03 UTC.
Position N 55°44' E 015°43'.

Length 163 m; draft 6.6 m.

Type: Ship. MMSI: 230007000.

Date/timePositionNaut miles runAvg speedWind from/ knotsBaromVisibWave heightAir tempDewpointWater temp
2016-May-28 15:31N 55°44' E 015°43'1717.9
2016-May-28 14:33N 55°35' E 015°16'1818.1
2016-May-28 13:34N 55°26' E 014°48'1817.9
2016-May-28 12:33N 55°14' E 014°24'1716.7
2016-May-28 11:33N 55°11' E 013°56'1817.8
2016-May-28 10:33N 55°13' E 013°25'1818.2
2016-May-28 09:33N 55°15' E 012°53'1413.9
2016-May-28 08:33N 55°26' E 012°40'1211.5
2016-May-28 07:34N 55°38' E 012°42'1414.5
2016-May-28 06:33N 55°52' E 012°40'1615.7
2016-May-28 05:33N 56°07' E 012°31'1818.2
2016-May-28 04:33N 56°22' E 012°11'1818.4
2016-May-28 03:33N 56°38' E 011°54'1918.7
2016-May-28 02:34N 56°55' E 011°44'1918.6
2016-May-28 01:33N 57°13' E 011°33'1918.8
2016-May-28 00:33N 57°30' E 011°18'1818.4
2016-May-27 23:33N 57°43' E 010°53'16117.3
2016-May-27 14:17N 55°59' E 007°09'1318.3
2016-May-27 13:33N 55°47' E 006°57'1918.6
2016-May-27 12:33N 55°32' E 006°40'1918.9
2016-May-27 11:33N 55°15' E 006°22'6819.4
2016-May-27 08:04N 54°18' E 005°21'917.0
2016-May-27 07:33N 54°10' E 005°13'1918.7
2016-May-27 06:33N 53°53' E 005°01'1818.4
2016-May-27 05:33N 53°36' E 004°49'7317.2
2016-May-27 01:21N 52°33' E 003°48'1717.1
2016-May-27 00:23N 52°19' E 003°34'2116.4
2016-May-26 23:07N 51°59' E 003°23'916.1
2016-May-26 22:33N 51°51' E 003°19'1110.6
2016-May-26 21:33N 51°40' E 003°18'1615.7
2016-May-26 20:33N 51°27' E 003°32'1413.6
2016-May-26 19:33N 51°21' E 003°52'1313.3
2016-May-26 18:34N 51°23' E 004°13'8 8.1
2016-May-26 17:34N 51°16' E 004°17'2 2.4
2016-May-26 16:33N 51°17' E 004°13'0 0.0
2016-May-26 15:33N 51°17' E 004°13'0 0.0
2016-May-26 14:30N 51°17' E 004°13'0 0.0
2016-May-26 13:33N 51°17' E 004°13'0 0.0
2016-May-26 12:33N 51°17' E 004°13'0 0.0
2016-May-26 11:33N 51°17' E 004°13'0 0.0
2016-May-26 10:33N 51°17' E 004°13'0 0.0
2016-May-26 09:33N 51°17' E 004°13'0 0.0
2016-May-26 08:30N 51°17' E 004°13'0 0.0
2016-May-26 07:30N 51°17' E 004°13'0 0.0
2016-May-26 06:27N 51°17' E 004°13'0 0.0
2016-May-26 05:27N 51°17' E 004°13'0 0.0
2016-May-26 04:33N 51°17' E 004°13'2 2.4
2016-May-26 03:34N 51°16' E 004°17'2 1.9
2016-May-26 02:34N 51°17' E 004°19'1111.4
2016-May-26 01:34N 51°22' E 004°03'1312.6
2016-May-26 00:34N 51°23' E 003°43'1312.9
2016-May-25 23:33N 51°31' E 003°27'1615.8
2016-May-25 22:33N 51°45' E 003°14'3416.6
2016-May-25 20:30N 52°17' E 003°31'1616.7
2016-May-25 19:33N 52°24' E 003°54'1716.7
2016-May-25 18:33N 52°28' E 004°20'10 9.9
2016-May-25 17:33N 52°28' E 004°37'6 6.5
2016-May-25 16:34N 52°26' E 004°46'3 2.7
2016-May-25 15:33N 52°24' E 004°50'0 0.0
2016-May-25 14:31N 52°24' E 004°50'0 0.0
2016-May-25 13:31N 52°24' E 004°50'0 0.0
2016-May-25 12:28N 52°24' E 004°50'0 0.0
2016-May-25 11:31N 52°24' E 004°50'0 0.0
2016-May-25 10:31N 52°24' E 004°50'0 0.0
2016-May-25 09:31N 52°24' E 004°50'0 0.0
2016-May-25 08:28N 52°24' E 004°50'0 0.0
2016-May-25 07:31N 52°24' E 004°50'0 0.2
2016-May-25 06:34N 52°24' E 004°49'6 6.2
2016-May-25 05:33N 52°27' E 004°41'4 3.6
2016-May-25 04:34N 52°28' E 004°35'1313.4
2016-May-25 03:34N 52°29' E 004°13'8717.4
2016-May-24 22:33N 51°45' E 002°11'1616.1
2016-May-24 21:33N 51°35' E 001°50'1615.7
2016-May-24 20:34N 51°25' E 001°31'1615.6
2016-May-24 19:34N 51°29' E 001°07'1918.9
2016-May-24 18:33N 51°30' E 000°37'1110.5
2016-May-24 17:34N 51°27' E 000°20'1 0.6
2016-May-24 16:34N 51°27' E 000°21'0 0.0
2016-May-24 15:34N 51°27' E 000°21'0 0.0
2016-May-24 14:34N 51°27' E 000°21'0 0.0
2016-May-24 13:34N 51°27' E 000°21'0 0.0
2016-May-24 12:34N 51°27' E 000°21'0 0.0
2016-May-24 11:34N 51°27' E 000°21'0 0.0
2016-May-24 10:34N 51°27' E 000°21'0 0.0
2016-May-24 09:34N 51°27' E 000°21'0 0.0
2016-May-24 08:34N 51°27' E 000°21'0 0.0
2016-May-24 07:33N 51°27' E 000°21'0 0.0
2016-May-24 06:34N 51°27' E 000°21'1 0.6
2016-May-24 05:34N 51°27' E 000°20'1 1.1
2016-May-24 04:34N 51°27' E 000°22'1111.3
2016-May-24 03:33N 51°30' E 000°40'1413.6
2016-May-24 02:33N 51°30' E 001°02'1313.2
2016-May-24 01:33N 51°28' E 001°23'8 8.4
2016-May-24 00:33N 51°30' E 001°36'1313.5
2016-May-23 23:34N 51°37' E 001°54'1915.9
2016-May-23 22:22N 51°53' E 002°11'1417.0
2016-May-23 21:32N 52°06' E 002°21'1916.6
2016-May-23 20:24N 52°22' E 002°36'1416.1
2016-May-23 19:31N 52°35' E 002°47'1915.6
2016-May-23 18:17N 52°52' E 003°01'19415.1
2016-May-23 05:26N 55°30' E 006°13'1615.5
2016-May-23 04:25N 55°42' E 006°30'1415.4
2016-May-23 03:31N 55°54' E 006°44'15115.2
2016-May-22 17:33N 57°41' E 009°58'1515.5
2016-May-22 16:33N 57°47' E 010°24'1413.9
2016-May-22 15:33N 57°46' E 010°50'1515.1
2016-May-22 14:33N 57°36' E 011°11'1514.7
2016-May-22 13:33N 57°24' E 011°28'1515.2
2016-May-22 12:33N 57°10' E 011°38'1515.2
2016-May-22 11:33N 56°56' E 011°48'1515.2
2016-May-22 10:33N 56°42' E 011°57'1514.8
2016-May-22 09:33N 56°27' E 012°05'1515.2
2016-May-22 08:33N 56°15' E 012°22'1515.5
2016-May-22 07:34N 56°03' E 012°39'1515.0
2016-May-22 06:33N 55°49' E 012°44'1313.0
2016-May-22 05:33N 55°36' E 012°42'1312.9
2016-May-22 04:33N 55°23' E 012°40'1312.7
2016-May-22 03:33N 55°15' E 012°59'1514.9
2016-May-22 02:33N 55°14' E 013°25'1514.7
2016-May-22 01:33N 55°14' E 013°50'1514.9
2016-May-22 00:33N 55°14' E 014°16'1514.7
2016-May-21 23:33N 55°26' E 014°33'1514.9
2016-May-21 22:33N 55°34' E 014°55'1515.4
2016-May-21 21:33N 55°42' E 015°18'1515.4
2016-May-21 20:33N 55°49' E 015°42'1615.5
2016-May-21 19:33N 55°56' E 016°07'28114.8
2016-May-21 00:33N 59°21' E 022°08'1615.5
2016-May-20 23:32N 59°30' E 022°32'1515.3
2016-May-20 22:33N 59°35' E 023°01'1515.4
2016-May-20 21:33N 59°40' E 023°29'1515.3
2016-May-20 20:33N 59°45' E 023°58'47 2.7
2016-May-20 03:32N 60°13' E 025°12'8 8.0
2016-May-20 02:33N 60°05' E 025°10'17 5.2
2016-May-19 23:20N 59°58' E 025°40'1013.2
2016-May-19 22:33N 60°01' E 025°59'1513.3
2016-May-19 21:24N 60°11' E 026°23'1213.7
2016-May-19 20:33N 60°20' E 026°37'1312.6
2016-May-19 19:33N 60°27' E 026°58'2 1.8
2016-May-19 18:33N 60°29' E 026°57'0 0.0
2016-May-19 17:32N 60°29' E 026°57'0 0.0
2016-May-19 16:32N 60°29' E 026°57'0 0.0
2016-May-19 15:32N 60°29' E 026°57'0 0.0
2016-May-19 14:32N 60°29' E 026°57'0 0.0
2016-May-19 13:32N 60°29' E 026°57'0 0.0
2016-May-19 12:29N 60°29' E 026°57'0 0.0
2016-May-19 11:32N 60°29' E 026°57'0 0.0
2016-May-19 10:32N 60°29' E 026°57'0 0.0
2016-May-19 09:32N 60°29' E 026°57'0 0.0
2016-May-19 08:29N 60°29' E 026°57'0 0.0
2016-May-19 07:32N 60°29' E 026°57'0 0.0
2016-May-19 06:32N 60°29' E 026°57'0 0.0
2016-May-19 05:32N 60°29' E 026°57'0 0.0
2016-May-19 04:29N 60°29' E 026°57'3 3.4
2016-May-19 03:34N 60°26' E 026°58'1918.5
2016-May-19 02:33N 60°15' E 026°27'1514.7
2016-May-19 01:34N 60°01' E 026°36'1818.4
2016-May-19 00:33N 60°02' E 027°13'1919.1
2016-May-18 23:33N 60°12' E 027°46'1918.7
2016-May-18 22:33N 60°05' E 028°22'1918.8
2016-May-18 21:33N 60°02' E 028°59'1616.3
2016-May-18 20:33N 60°01' E 029°31'1110.9
2016-May-18 19:33N 59°57' E 029°52'1010.3
2016-May-18 18:33N 59°53' E 030°11'1 1.1
2016-May-18 17:33N 59°54' E 030°13'0 0.0
2016-May-18 16:33N 59°54' E 030°13'0 0.0
2016-May-18 15:33N 59°54' E 030°13'  
Track history (hours):
 
Tides and Currents Weather Stations Pressure Air Temp Water Temp Dewpoint Dewpoint Depression Visibility Wind Speed Wind Dir Waves Ship Positions

Finnhawk

Last reported at 2016-May-28 15:31 UTC. Time now 2016-May-29 00:03 UTC.
Position N 55°44' E 015°43'.

Length 163 m; draft 6.6 m.

Type: Ship. MMSI: 230007000.

Date/timePositionNaut miles runAvg speedWind from/ knotsBaromVisibWave heightAir tempDewpointWater temp
2016-May-28 15:31N 55°44' E 015°43'1717.9
2016-May-28 14:33N 55°35' E 015°16'1818.1
2016-May-28 13:34N 55°26' E 014°48'1817.9
2016-May-28 12:33N 55°14' E 014°24'1716.7
2016-May-28 11:33N 55°11' E 013°56'1817.8
2016-May-28 10:33N 55°13' E 013°25'1818.2
2016-May-28 09:33N 55°15' E 012°53'1413.9
2016-May-28 08:33N 55°26' E 012°40'1211.5
2016-May-28 07:34N 55°38' E 012°42'1414.5
2016-May-28 06:33N 55°52' E 012°40'1615.7
2016-May-28 05:33N 56°07' E 012°31'1818.2
2016-May-28 04:33N 56°22' E 012°11'1818.4
2016-May-28 03:33N 56°38' E 011°54'1918.7
2016-May-28 02:34N 56°55' E 011°44'1918.6
2016-May-28 01:33N 57°13' E 011°33'1918.8
2016-May-28 00:33N 57°30' E 011°18'1818.4
2016-May-27 23:33N 57°43' E 010°53'16117.3
2016-May-27 14:17N 55°59' E 007°09'1318.3
2016-May-27 13:33N 55°47' E 006°57'1918.6
2016-May-27 12:33N 55°32' E 006°40'1918.9
2016-May-27 11:33N 55°15' E 006°22'6819.4
2016-May-27 08:04N 54°18' E 005°21'917.0
2016-May-27 07:33N 54°10' E 005°13'1918.7
2016-May-27 06:33N 53°53' E 005°01'1818.4
2016-May-27 05:33N 53°36' E 004°49'7317.2
2016-May-27 01:21N 52°33' E 003°48'1717.1
2016-May-27 00:23N 52°19' E 003°34'2116.4
2016-May-26 23:07N 51°59' E 003°23'916.1
2016-May-26 22:33N 51°51' E 003°19'1110.6
2016-May-26 21:33N 51°40' E 003°18'1615.7
2016-May-26 20:33N 51°27' E 003°32'1413.6
2016-May-26 19:33N 51°21' E 003°52'1313.3
2016-May-26 18:34N 51°23' E 004°13'8 8.1
2016-May-26 17:34N 51°16' E 004°17'2 2.4
2016-May-26 16:33N 51°17' E 004°13'0 0.0
2016-May-26 15:33N 51°17' E 004°13'0 0.0
2016-May-26 14:30N 51°17' E 004°13'0 0.0
2016-May-26 13:33N 51°17' E 004°13'0 0.0
2016-May-26 12:33N 51°17' E 004°13'0 0.0
2016-May-26 11:33N 51°17' E 004°13'0 0.0
2016-May-26 10:33N 51°17' E 004°13'0 0.0
2016-May-26 09:33N 51°17' E 004°13'0 0.0
2016-May-26 08:30N 51°17' E 004°13'0 0.0
2016-May-26 07:30N 51°17' E 004°13'0 0.0
2016-May-26 06:27N 51°17' E 004°13'0 0.0
2016-May-26 05:27N 51°17' E 004°13'0 0.0
2016-May-26 04:33N 51°17' E 004°13'2 2.4
2016-May-26 03:34N 51°16' E 004°17'2 1.9
2016-May-26 02:34N 51°17' E 004°19'1111.4
2016-May-26 01:34N 51°22' E 004°03'1312.6
2016-May-26 00:34N 51°23' E 003°43'1312.9
2016-May-25 23:33N 51°31' E 003°27'1615.8
2016-May-25 22:33N 51°45' E 003°14'3416.6
2016-May-25 20:30N 52°17' E 003°31'1616.7
2016-May-25 19:33N 52°24' E 003°54'1716.7
2016-May-25 18:33N 52°28' E 004°20'10 9.9
2016-May-25 17:33N 52°28' E 004°37'6 6.5
2016-May-25 16:34N 52°26' E 004°46'3 2.7
2016-May-25 15:33N 52°24' E 004°50'0 0.0
2016-May-25 14:31N 52°24' E 004°50'0 0.0
2016-May-25 13:31N 52°24' E 004°50'0 0.0
2016-May-25 12:28N 52°24' E 004°50'0 0.0
2016-May-25 11:31N 52°24' E 004°50'0 0.0
2016-May-25 10:31N 52°24' E 004°50'0 0.0
2016-May-25 09:31N 52°24' E 004°50'0 0.0
2016-May-25 08:28N 52°24' E 004°50'0 0.0
2016-May-25 07:31N 52°24' E 004°50'0 0.2
2016-May-25 06:34N 52°24' E 004°49'6 6.2
2016-May-25 05:33N 52°27' E 004°41'4 3.6
2016-May-25 04:34N 52°28' E 004°35'1313.4
2016-May-25 03:34N 52°29' E 004°13'8717.4
2016-May-24 22:33N 51°45' E 002°11'1616.1
2016-May-24 21:33N 51°35' E 001°50'1615.7
2016-May-24 20:34N 51°25' E 001°31'1615.6
2016-May-24 19:34N 51°29' E 001°07'1918.9
2016-May-24 18:33N 51°30' E 000°37'1110.5
2016-May-24 17:34N 51°27' E 000°20'1 0.6
2016-May-24 16:34N 51°27' E 000°21'0 0.0
2016-May-24 15:34N 51°27' E 000°21'0 0.0
2016-May-24 14:34N 51°27' E 000°21'0 0.0
2016-May-24 13:34N 51°27' E 000°21'0 0.0
2016-May-24 12:34N 51°27' E 000°21'0 0.0
2016-May-24 11:34N 51°27' E 000°21'0 0.0
2016-May-24 10:34N 51°27' E 000°21'0 0.0
2016-May-24 09:34N 51°27' E 000°21'0 0.0
2016-May-24 08:34N 51°27' E 000°21'0 0.0
2016-May-24 07:33N 51°27' E 000°21'0 0.0
2016-May-24 06:34N 51°27' E 000°21'1 0.6
2016-May-24 05:34N 51°27' E 000°20'1 1.1
2016-May-24 04:34N 51°27' E 000°22'1111.3
2016-May-24 03:33N 51°30' E 000°40'1413.6
2016-May-24 02:33N 51°30' E 001°02'1313.2
2016-May-24 01:33N 51°28' E 001°23'8 8.4
2016-May-24 00:33N 51°30' E 001°36'1313.5
2016-May-23 23:34N 51°37' E 001°54'1915.9
2016-May-23 22:22N 51°53' E 002°11'1417.0
2016-May-23 21:32N 52°06' E 002°21'1916.6
2016-May-23 20:24N 52°22' E 002°36'1416.1
2016-May-23 19:31N 52°35' E 002°47'1915.6
2016-May-23 18:17N 52°52' E 003°01'19415.1
2016-May-23 05:26N 55°30' E 006°13'1615.5
2016-May-23 04:25N 55°42' E 006°30'1415.4
2016-May-23 03:31N 55°54' E 006°44'15115.2
2016-May-22 17:33N 57°41' E 009°58'1515.5
2016-May-22 16:33N 57°47' E 010°24'1413.9
2016-May-22 15:33N 57°46' E 010°50'1515.1
2016-May-22 14:33N 57°36' E 011°11'1514.7
2016-May-22 13:33N 57°24' E 011°28'1515.2
2016-May-22 12:33N 57°10' E 011°38'1515.2
2016-May-22 11:33N 56°56' E 011°48'1515.2
2016-May-22 10:33N 56°42' E 011°57'1514.8
2016-May-22 09:33N 56°27' E 012°05'1515.2
2016-May-22 08:33N 56°15' E 012°22'1515.5
2016-May-22 07:34N 56°03' E 012°39'1515.0
2016-May-22 06:33N 55°49' E 012°44'1313.0
2016-May-22 05:33N 55°36' E 012°42'1312.9
2016-May-22 04:33N 55°23' E 012°40'1312.7
2016-May-22 03:33N 55°15' E 012°59'1514.9
2016-May-22 02:33N 55°14' E 013°25'1514.7
2016-May-22 01:33N 55°14' E 013°50'1514.9
2016-May-22 00:33N 55°14' E 014°16'1514.7
2016-May-21 23:33N 55°26' E 014°33'1514.9
2016-May-21 22:33N 55°34' E 014°55'1515.4
2016-May-21 21:33N 55°42' E 015°18'1515.4
2016-May-21 20:33N 55°49' E 015°42'1615.5
2016-May-21 19:33N 55°56' E 016°07'28114.8
2016-May-21 00:33N 59°21' E 022°08'1615.5
2016-May-20 23:32N 59°30' E 022°32'1515.3
2016-May-20 22:33N 59°35' E 023°01'1515.4
2016-May-20 21:33N 59°40' E 023°29'1515.3
2016-May-20 20:33N 59°45' E 023°58'47 2.7
2016-May-20 03:32N 60°13' E 025°12'8 8.0
2016-May-20 02:33N 60°05' E 025°10'17 5.2
2016-May-19 23:20N 59°58' E 025°40'1013.2
2016-May-19 22:33N 60°01' E 025°59'1513.3
2016-May-19 21:24N 60°11' E 026°23'1213.7
2016-May-19 20:33N 60°20' E 026°37'1312.6
2016-May-19 19:33N 60°27' E 026°58'2 1.8
2016-May-19 18:33N 60°29' E 026°57'0 0.0
2016-May-19 17:32N 60°29' E 026°57'0 0.0
2016-May-19 16:32N 60°29' E 026°57'0 0.0
2016-May-19 15:32N 60°29' E 026°57'0 0.0
2016-May-19 14:32N 60°29' E 026°57'0 0.0
2016-May-19 13:32N 60°29' E 026°57'0 0.0
2016-May-19 12:29N 60°29' E 026°57'0 0.0
2016-May-19 11:32N 60°29' E 026°57'0 0.0
2016-May-19 10:32N 60°29' E 026°57'0 0.0
2016-May-19 09:32N 60°29' E 026°57'0 0.0
2016-May-19 08:29N 60°29' E 026°57'0 0.0
2016-May-19 07:32N 60°29' E 026°57'0 0.0
2016-May-19 06:32N 60°29' E 026°57'0 0.0
2016-May-19 05:32N 60°29' E 026°57'0 0.0
2016-May-19 04:29N 60°29' E 026°57'3 3.4
2016-May-19 03:34N 60°26' E 026°58'1918.5
2016-May-19 02:33N 60°15' E 026°27'1514.7
2016-May-19 01:34N 60°01' E 026°36'1818.4
2016-May-19 00:33N 60°02' E 027°13'1919.1
2016-May-18 23:33N 60°12' E 027°46'1918.7
2016-May-18 22:33N 60°05' E 028°22'1918.8
2016-May-18 21:33N 60°02' E 028°59'1616.3
2016-May-18 20:33N 60°01' E 029°31'1110.9
2016-May-18 19:33N 59°57' E 029°52'1010.3
2016-May-18 18:33N 59°53' E 030°11'1 1.1
2016-May-18 17:33N 59°54' E 030°13'0 0.0
2016-May-18 16:33N 59°54' E 030°13'0 0.0
2016-May-18 15:33N 59°54' E 030°13'  

Dump ship's entire track history